Aplin, Arkansas
Current Conditions -  °F | °C
As of 4:53 PM on Monday 20 Oct 2014 (Local Time) from KRUE Reporting Station
Broken Clouds Broken Clouds  
Wind Chill: 70°   Ceiling: 4900
Heat Index: 70°   Visibility: 10mi
Dew Point: 55°   Wind: 3mph
Humidity: 59%   Direction: 310°NW
Pressure: 30.02"   Gusts: NA
Location:  34.9067°N, 93.0072°W
Report Text: KRUE 202153Z AUTO 31003KT 10SM SCT033 BKN049 21/13 A3002 RMK AO2 SLP160 T02110128
Loading
Personal Weather Stations






























Interactive Weather Map
Tropical Storm Tracking
New forecast layout! Learn more

10-Day Weather Forecast

Advertisements
Track Severe Weather on mobile